Time;durP1;ratioP1;P1;durP2;ratioP2;P2;SDS_P1;SDS_P2;PMS_P1;PMS_P2;Temp;Humidity;BMP_temperature;BMP_pressure;BME280_temperature;BME280_humidity;BME280_pressure;Samples;Min_cycle;Max_cycle;Signal;HPM_P1;HPM_P2
2023/11/16 00:02:27;;;;;;;2.20;1.80;;;;;;;8.88;80.51;97828.48;105372;1262;74219;-26
2023/11/16 00:04:54;;;;;;;2.40;1.90;;;;;;;8.76;79.98;97824.39;105338;1262;72654;-26
2023/11/16 00:07:23;;;;;;;3.70;2.00;;;;;;;8.52;80.19;97823.95;105571;1262;62534;-26
2023/11/16 00:09:50;;;;;;;2.80;1.90;;;;;;;8.30;80.82;97830.48;105513;1263;61176;-26
2023/11/16 00:12:18;;;;;;;4.60;1.80;;;;;;;8.19;81.75;97843.91;105423;1260;73734;-26
2023/11/16 00:14:45;;;;;;;2.30;2.00;;;;;;;8.54;80.39;97844.42;105398;1262;74212;-26
2023/11/16 00:17:13;;;;;;;3.10;1.60;;;;;;;8.58;79.16;97842.01;105376;1260;71535;-26
2023/11/16 00:19:42;;;;;;;1.80;1.50;;;;;;;8.65;79.36;97848.77;105566;1262;61156;-26
2023/11/16 00:22:09;;;;;;;2.40;1.70;;;;;;;8.45;79.71;97846.77;105404;1260;61070;-27
2023/11/16 00:24:36;;;;;;;1.70;1.50;;;;;;;8.02;80.66;97850.09;105507;1263;73697;-26
2023/11/16 00:27:04;;;;;;;2.70;1.80;;;;;;;7.94;80.44;97849.33;105564;1262;74225;-26
2023/11/16 00:29:32;;;;;;;3.80;2.00;;;;;;;8.04;78.96;97844.44;105425;1260;72776;-26
2023/11/16 00:31:59;;;;;;;3.20;2.10;;;;;;;7.85;79.32;97854.89;105513;1262;61054;-26
2023/11/16 00:34:26;;;;;;;3.40;2.10;;;;;;;7.76;79.38;97856.88;105493;1264;61074;-26
2023/11/16 00:36:54;;;;;;;2.00;1.60;;;;;;;7.47;80.25;97858.86;105593;1260;73736;-26
2023/11/16 00:39:21;;;;;;;2.30;1.80;;;;;;;7.30;81.22;97866.92;105358;1260;73858;-26
2023/11/16 00:41:48;;;;;;;2.00;1.50;;;;;;;7.50;79.88;97869.55;105504;1263;73037;-26
2023/11/16 00:44:19;;;;;;;3.20;1.90;;;;;;;7.56;79.17;97871.11;105259;1258;61117;-26
2023/11/16 00:46:48;;;;;;;7.50;1.80;;;;;;;7.24;79.80;97862.77;105559;1262;61185;-26
2023/11/16 00:49:15;;;;;;;2.00;1.30;;;;;;;7.12;80.30;97869.54;105570;1263;73826;-26
2023/11/16 00:51:42;;;;;;;1.40;1.20;;;;;;;7.01;80.62;97882.68;105561;1262;74370;-26
2023/11/16 00:54:14;;;;;;;1.90;1.60;;;;;;;7.22;79.38;97886.61;105365;1263;72556;-26
2023/11/16 00:56:40;;;;;;;2.80;1.50;;;;;;;7.18;78.63;97894.39;105456;1260;61156;-26
2023/11/16 00:59:10;;;;;;;4.50;1.50;;;;;;;7.05;78.46;97908.20;105411;1265;61180;-26
2023/11/16 01:01:37;;;;;;;2.20;1.30;;;;;;;6.75;79.64;97909.86;105433;1257;73829;-26
2023/11/16 01:04:06;;;;;;;5.50;1.00;;;;;;;6.65;79.71;97921.05;105389;1263;74159;-26
2023/11/16 01:06:33;;;;;;;1.20;0.90;;;;;;;6.84;78.18;97914.65;105162;1265;72428;-27
2023/11/16 01:09:06;;;;;;;1.30;1.00;;;;;;;6.78;77.68;97917.70;105360;1262;61153;-27
2023/11/16 01:11:36;;;;;;;1.30;1.10;;;;;;;6.75;77.26;97927.15;105231;1262;62359;-26
2023/11/16 01:14:03;;;;;;;1.20;1.00;;;;;;;6.39;78.12;97914.21;105504;1263;75499;-26
2023/11/16 01:16:34;;;;;;;1.00;0.80;;;;;;;6.24;78.60;97926.11;105583;1263;74208;-27
2023/11/16 01:19:02;;;;;;;1.20;1.00;;;;;;;6.28;78.17;97925.25;105165;1266;72675;-26
2023/11/16 01:21:29;;;;;;;1.60;1.00;;;;;;;6.42;76.57;97914.29;105284;1262;61162;-26
2023/11/16 01:24:03;;;;;;;0.90;0.70;;;;;;;6.36;76.03;97916.68;105056;1263;61186;-26
2023/11/16 01:26:35;;;;;;;1.30;1.00;;;;;;;6.28;75.94;97922.55;105221;1258;74376;-26
2023/11/16 01:29:06;;;;;;;0.70;0.70;;;;;;;6.01;77.16;97929.00;105292;1263;74413;-26
2023/11/16 01:31:34;;;;;;;0.60;0.60;;;;;;;5.88;77.80;97930.86;105554;1257;73231;-27
2023/11/16 01:34:01;;;;;;;1.40;0.70;;;;;;;6.04;77.66;97936.17;105077;1265;61869;-26
2023/11/16 01:36:29;;;;;;;1.00;0.80;;;;;;;6.35;76.21;97937.67;105161;1263;61102;-26
2023/11/16 01:38:57;;;;;;;1.30;1.00;;;;;;;6.33;75.84;97935.89;105404;1258;73868;-26
2023/11/16 01:41:24;;;;;;;0.80;0.70;;;;;;;6.21;76.25;97939.78;105377;1263;74247;-26
2023/11/16 01:43:51;;;;;;;1.90;0.70;;;;;;;6.14;77.13;97948.65;105328;1266;72501;-26
2023/11/16 01:46:19;;;;;;;1.20;0.90;;;;;;;5.85;78.01;97947.41;105394;1257;61039;-26
2023/11/16 01:48:48;;;;;;;1.60;0.80;;;;;;;6.08;77.92;97950.50;105411;1272;61196;-26
2023/11/16 01:51:15;;;;;;;0.90;0.80;;;;;;;6.17;77.01;97951.50;105589;1266;73829;-26
2023/11/16 01:53:54;;;;;;;0.60;0.60;;;;;;;6.22;76.71;97954.04;105277;1264;74317;-27
2023/11/16 01:56:21;;;;;;;1.00;0.90;;;;;;;6.10;77.52;97956.88;105422;1263;71510;-26
2023/11/16 01:58:48;;;;;;;0.70;0.70;;;;;;;5.89;78.54;97952.35;105388;1264;61175;-27
2023/11/16 02:01:16;;;;;;;1.30;0.80;;;;;;;5.70;78.80;97948.78;105098;1273;61176;-26
2023/11/16 02:03:46;;;;;;;2.40;0.80;;;;;;;5.93;78.72;97952.52;105391;1264;73688;-26
2023/11/16 02:06:15;;;;;;;1.70;0.90;;;;;;;5.99;78.02;97951.89;105500;1262;74307;-30
2023/11/16 02:08:45;;;;;;;0.90;0.70;;;;;;;5.80;78.64;97949.42;105606;1261;72684;-26
2023/11/16 02:11:13;;;;;;;1.50;1.10;;;;;;;5.76;78.90;97953.02;105553;1254;61106;-27
2023/11/16 02:13:42;;;;;;;0.50;0.50;;;;;;;5.46;79.57;97946.91;105707;1261;61205;-26
2023/11/16 02:16:09;;;;;;;1.40;0.80;;;;;;;5.97;77.82;97957.74;105663;1260;73505;-26
2023/11/16 02:18:38;;;;;;;1.10;0.90;;;;;;;6.06;77.07;97962.01;105611;1254;74253;-26
2023/11/16 02:21:06;;;;;;;1.10;0.80;;;;;;;5.98;77.49;97958.34;105493;1260;72655;-26
2023/11/16 02:23:34;;;;;;;1.40;1.00;;;;;;;5.74;78.90;97966.60;105643;1258;61167;-26
2023/11/16 02:26:01;;;;;;;1.80;0.80;;;;;;;5.53;78.56;97952.37;105553;1264;61061;-26
2023/11/16 02:28:30;;;;;;;1.10;0.60;;;;;;;5.68;79.52;97970.51;105542;1259;74500;-26
2023/11/16 02:30:57;;;;;;;1.80;1.10;;;;;;;6.13;77.41;97966.84;105611;1261;74742;-26
2023/11/16 02:33:25;;;;;;;0.70;0.70;;;;;;;5.95;77.63;97972.66;105443;1260;72673;-27
2023/11/16 02:35:53;;;;;;;0.70;0.70;;;;;;;5.56;79.31;97964.71;105544;1257;61137;-26
2023/11/16 02:38:20;;;;;;;2.60;0.80;;;;;;;5.59;79.42;97972.71;105674;1256;61219;-26
2023/11/16 02:40:51;;;;;;;0.60;0.60;;;;;;;5.39;80.31;97979.98;105675;1260;73803;-26
2023/11/16 02:43:20;;;;;;;1.20;0.90;;;;;;;5.60;80.09;97983.14;105604;1260;74335;-26
2023/11/16 02:45:48;;;;;;;1.00;0.70;;;;;;;5.80;79.48;97994.91;105508;1261;72641;-26
2023/11/16 02:48:15;;;;;;;3.10;1.00;;;;;;;5.79;78.95;97987.00;105621;1259;61169;-26
2023/11/16 02:50:43;;;;;;;0.80;0.70;;;;;;;5.38;80.50;97982.59;105539;1255;61161;-27
2023/11/16 02:53:10;;;;;;;3.60;1.20;;;;;;;5.33;81.50;97985.72;105609;1259;73714;-27
2023/11/16 02:55:37;;;;;;;1.50;1.00;;;;;;;5.43;81.52;97983.08;105600;1254;74287;-27
2023/11/16 02:58:05;;;;;;;1.40;1.00;;;;;;;5.64;79.55;97983.56;105462;1254;73041;-27
2023/11/16 03:00:32;;;;;;;0.90;0.80;;;;;;;5.62;79.82;98007.78;105652;1259;61145;-27
2023/11/16 03:03:02;;;;;;;1.30;0.80;;;;;;;5.29;80.26;97999.82;105656;1266;61186;-27
2023/11/16 03:05:31;;;;;;;0.60;0.60;;;;;;;4.93;81.20;98018.98;105701;1259;73841;-27
2023/11/16 03:07:58;;;;;;;0.60;0.60;;;;;;;5.12;80.97;98026.36;105690;1260;74138;-27
2023/11/16 03:10:28;;;;;;;0.70;0.60;;;;;;;5.31;79.69;98027.52;105610;1256;73203;-26
2023/11/16 03:12:56;;;;;;;1.30;0.80;;;;;;;5.52;78.71;98031.46;105570;1255;61440;-27
2023/11/16 03:15:23;;;;;;;2.10;0.90;;;;;;;5.12;79.84;98030.16;105625;1254;61164;-26
2023/11/16 03:17:50;;;;;;;0.70;0.70;;;;;;;5.07;80.58;98032.25;105452;1260;73871;-26
2023/11/16 03:20:18;;;;;;;0.50;0.50;;;;;;;4.97;81.47;98033.48;105653;1260;74058;-26
2023/11/16 03:22:45;;;;;;;1.10;0.70;;;;;;;5.24;80.05;98034.95;105623;1267;72449;-26
2023/11/16 03:25:14;;;;;;;1.00;0.70;;;;;;;5.39;79.10;98032.59;105490;1255;61764;-26
2023/11/16 03:27:42;;;;;;;0.90;0.70;;;;;;;5.11;79.23;98038.70;103193;1254;3478911;-27
2023/11/16 03:30:10;;;;;;;1.30;0.70;;;;;;;4.98;80.00;98038.27;105654;1254;73720;-27
2023/11/16 03:32:37;;;;;;;0.70;0.60;;;;;;;4.85;81.08;98049.49;105617;1261;74326;-27
2023/11/16 03:35:05;;;;;;;0.70;0.50;;;;;;;4.96;80.39;98040.14;105615;1258;71534;-27
2023/11/16 03:37:32;;;;;;;0.50;0.50;;;;;;;5.06;79.75;98050.54;105580;1259;61177;-27
2023/11/16 03:40:02;;;;;;;0.60;0.60;;;;;;;5.05;79.32;98052.36;105477;1258;61119;-28
2023/11/16 03:42:29;;;;;;;2.20;0.50;;;;;;;4.94;79.79;98054.91;105428;1255;73877;-27
2023/11/16 03:44:56;;;;;;;0.70;0.70;;;;;;;4.82;80.45;98050.74;105518;1260;74960;-27
2023/11/16 03:47:23;;;;;;;0.50;0.50;;;;;;;4.64;81.20;98058.08;105433;1259;72690;-27
2023/11/16 03:49:51;;;;;;;1.70;0.50;;;;;;;5.06;80.22;98066.90;105583;1258;61209;-27
2023/11/16 03:52:18;;;;;;;0.50;0.50;;;;;;;5.05;80.45;98078.90;105600;1265;61122;-27
2023/11/16 03:54:45;;;;;;;0.70;0.70;;;;;;;4.94;80.64;98068.80;105639;1259;73652;-27
2023/11/16 03:57:13;;;;;;;0.60;0.60;;;;;;;4.66;81.26;98068.64;105574;1254;74406;-27
2023/11/16 03:59:41;;;;;;;0.50;0.50;;;;;;;4.47;82.05;98055.17;105647;1259;72827;-27
2023/11/16 04:02:08;;;;;;;0.60;0.50;;;;;;;4.57;82.13;98082.00;105578;1254;61211;-27
2023/11/16 04:04:35;;;;;;;0.40;0.40;;;;;;;4.90;80.80;98081.85;105602;1258;61160;-27
2023/11/16 04:07:02;;;;;;;0.90;0.60;;;;;;;4.56;81.40;98079.50;105669;1255;72727;-27
2023/11/16 04:09:30;;;;;;;0.60;0.60;;;;;;;4.33;83.05;98091.27;105668;1254;74811;-28
2023/11/16 04:11:57;;;;;;;0.60;0.60;;;;;;;4.34;84.09;98088.29;105559;1254;72682;-26
2023/11/16 04:14:25;;;;;;;0.50;0.50;;;;;;;4.66;83.19;98094.03;105686;1255;61128;-26
2023/11/16 04:16:52;;;;;;;1.10;0.70;;;;;;;5.04;81.74;98105.09;105694;1260;61134;-26
2023/11/16 04:19:21;;;;;;;0.80;0.80;;;;;;;4.93;81.73;98102.13;105603;1254;73836;-26
2023/11/16 04:21:49;;;;;;;0.80;0.60;;;;;;;4.53;82.93;98096.16;105657;1258;74308;-26
2023/11/16 04:24:16;;;;;;;0.60;0.60;;;;;;;4.19;84.96;98108.20;105694;1257;72534;-26
2023/11/16 04:26:45;;;;;;;0.60;0.50;;;;;;;4.71;83.90;98111.55;105604;1255;61066;-26
2023/11/16 04:29:14;;;;;;;0.50;0.50;;;;;;;4.77;83.41;98116.00;105538;1259;61171;-26
2023/11/16 04:31:42;;;;;;;0.70;0.50;;;;;;;4.52;84.24;98131.13;105691;1259;73804;-26
2023/11/16 04:34:11;;;;;;;1.90;0.90;;;;;;;4.22;85.70;98129.80;105666;1260;74412;-27
2023/11/16 04:36:41;;;;;;;0.60;0.60;;;;;;;4.22;86.12;98125.67;105628;1254;72761;-26
2023/11/16 04:39:08;;;;;;;1.20;1.00;;;;;;;4.58;84.80;98137.80;105602;1255;61748;-26
2023/11/16 04:41:36;;;;;;;0.70;0.60;;;;;;;4.53;84.83;98136.55;105655;1259;61199;-27
2023/11/16 04:44:04;;;;;;;0.70;0.70;;;;;;;4.43;85.35;98135.53;105671;1255;72722;-27
2023/11/16 04:46:31;;;;;;;3.80;0.50;;;;;;;4.23;86.18;98143.80;105672;1260;74301;-27
2023/11/16 04:49:00;;;;;;;0.70;0.60;;;;;;;4.34;86.46;98146.51;105672;1254;72562;-28
2023/11/16 04:51:27;;;;;;;0.80;0.60;;;;;;;4.43;85.65;98140.90;105490;1254;61174;-26
2023/11/16 04:53:56;;;;;;;0.60;0.60;;;;;;;4.30;85.49;98141.64;105467;1259;61138;-26
2023/11/16 04:56:23;;;;;;;1.10;0.60;;;;;;;3.92;86.62;98150.08;105709;1254;74341;-25
2023/11/16 04:58:50;;;;;;;0.70;0.70;;;;;;;3.93;87.23;98147.80;105622;1258;74182;-25
2023/11/16 05:01:17;;;;;;;1.10;1.00;;;;;;;3.99;86.08;98142.72;105657;1254;72611;-25
2023/11/16 05:03:44;;;;;;;1.70;0.90;;;;;;;3.92;85.23;98148.83;105641;1255;61151;-25
2023/11/16 05:06:13;;;;;;;1.60;1.30;;;;;;;4.05;84.41;98158.09;105680;1260;61109;-25
2023/11/16 05:08:41;;;;;;;1.30;1.20;;;;;;;3.76;85.27;98145.67;105680;1254;73661;-25
2023/11/16 05:11:08;;;;;;;1.20;1.10;;;;;;;3.69;85.95;98162.96;105671;1260;74355;-25
2023/11/16 05:13:35;;;;;;;1.90;1.70;;;;;;;3.86;84.21;98138.95;105681;1254;72486;-25
2023/11/16 05:16:05;;;;;;;2.00;1.60;;;;;;;3.91;83.49;98143.64;105653;1258;61153;-26
2023/11/16 05:18:33;;;;;;;2.10;1.20;;;;;;;3.83;84.28;98164.61;105547;1260;61156;-25
2023/11/16 05:21:01;;;;;;;2.00;1.50;;;;;;;3.57;85.40;98168.89;105653;1254;73904;-25
2023/11/16 05:23:29;;;;;;;1.50;1.30;;;;;;;3.69;85.47;98176.14;105701;1254;74131;-26
2023/11/16 05:25:57;;;;;;;1.70;1.60;;;;;;;3.84;84.39;98172.78;105657;1254;73207;-25
2023/11/16 05:28:25;;;;;;;1.80;1.30;;;;;;;3.92;83.58;98171.54;105473;1260;61057;-26
2023/11/16 05:30:53;;;;;;;1.70;1.60;;;;;;;3.71;83.97;98178.78;105414;1262;61164;-25
2023/11/16 05:33:22;;;;;;;2.20;1.00;;;;;;;3.47;84.73;98182.27;105670;1255;73824;-25
2023/11/16 05:35:51;;;;;;;1.50;1.40;;;;;;;3.78;83.89;98192.89;105655;1258;73233;-26
2023/11/16 05:38:21;;;;;;;6.40;1.60;;;;;;;3.84;82.74;98196.94;105703;1254;72395;-26
2023/11/16 05:40:51;;;;;;;1.50;1.20;;;;;;;3.84;82.45;98204.02;105661;1254;61187;-26
2023/11/16 05:43:19;;;;;;;1.50;1.20;;;;;;;3.70;82.20;98210.56;105500;1260;61157;-27
2023/11/16 05:45:47;;;;;;;1.40;1.20;;;;;;;3.40;83.05;98203.65;105642;1254;73909;-27
2023/11/16 05:48:15;;;;;;;1.60;1.50;;;;;;;3.53;81.92;98210.00;105519;1257;74450;-27
2023/11/16 05:50:42;;;;;;;1.00;0.90;;;;;;;3.67;81.94;98211.47;105571;1258;72624;-27
2023/11/16 05:53:10;;;;;;;2.00;1.60;;;;;;;3.86;80.92;98220.69;105492;1258;61026;-27
2023/11/16 05:55:38;;;;;;;1.80;1.70;;;;;;;3.67;81.90;98223.86;105657;1254;61192;-27
2023/11/16 05:58:09;;;;;;;1.30;1.00;;;;;;;3.57;81.24;98212.83;105673;1260;73698;-27
2023/11/16 06:00:36;;;;;;;1.80;1.50;;;;;;;3.82;80.52;98231.10;105660;1260;74313;-27
2023/11/16 06:03:04;;;;;;;1.60;1.50;;;;;;;3.75;80.47;98222.59;105701;1254;72019;-27
2023/11/16 06:05:39;;;;;;;1.60;1.50;;;;;;;3.74;80.79;98234.53;105662;1254;61141;-27
2023/11/16 06:08:05;;;;;;;3.30;1.30;;;;;;;3.56;82.01;98250.12;105645;1260;61257;-27
2023/11/16 06:10:33;;;;;;;1.30;1.20;;;;;;;3.63;82.01;98249.48;105679;1254;73717;-27
2023/11/16 06:13:00;;;;;;;1.50;1.30;;;;;;;3.98;79.76;98237.56;105681;1255;74302;-27
2023/11/16 06:15:30;;;;;;;1.30;1.20;;;;;;;4.09;79.32;98251.46;105602;1254;71562;-27
2023/11/16 06:18:02;;;;;;;1.70;1.60;;;;;;;3.92;79.35;98253.13;105636;1254;61119;-27
2023/11/16 06:20:29;;;;;;;2.90;1.40;;;;;;;3.57;80.86;98240.99;105431;1254;61065;-31
2023/11/16 06:22:57;;;;;;;1.60;1.40;;;;;;;3.34;81.74;98247.44;105375;1253;73818;-27
2023/11/16 06:25:23;;;;;;;2.20;1.70;;;;;;;3.65;80.73;98257.48;105659;1253;74299;-27
2023/11/16 06:27:51;;;;;;;1.80;1.70;;;;;;;3.63;79.46;98230.60;105675;1253;72612;-27
2023/11/16 06:30:18;;;;;;;2.10;1.70;;;;;;;3.66;79.86;98255.46;105671;1257;61118;-27
2023/11/16 06:32:45;;;;;;;2.50;1.70;;;;;;;3.44;79.54;98254.84;105631;1260;61160;-29
2023/11/16 06:35:13;;;;;;;1.30;1.20;;;;;;;3.35;80.84;98259.04;105682;1254;73919;-27
2023/11/16 06:37:41;;;;;;;2.20;1.50;;;;;;;3.73;79.25;98268.23;105651;1260;73244;-27
2023/11/16 06:40:09;;;;;;;2.10;1.80;;;;;;;3.60;79.05;98266.73;105713;1254;73092;-27
2023/11/16 06:42:37;;;;;;;1.60;1.40;;;;;;;3.57;77.92;98266.38;105655;1253;61045;-27
2023/11/16 06:45:05;;;;;;;2.30;1.60;;;;;;;3.69;78.05;98277.27;105646;1254;61055;-27
2023/11/16 06:47:33;;;;;;;2.40;1.70;;;;;;;3.39;78.76;98270.59;105649;1259;72682;-28
2023/11/16 06:50:03;;;;;;;3.10;1.30;;;;;;;3.66;78.48;98278.98;105724;1258;74304;-27
2023/11/16 06:52:30;;;;;;;1.40;1.10;;;;;;;3.80;77.34;98280.52;105639;1253;72746;-27
2023/11/16 06:54:57;;;;;;;1.20;1.10;;;;;;;3.91;76.79;98295.43;105716;1254;61176;-27
2023/11/16 06:57:27;;;;;;;1.40;1.30;;;;;;;3.87;77.13;98295.46;105590;1258;61099;-27
2023/11/16 06:59:54;;;;;;;1.90;1.70;;;;;;;3.71;77.51;98293.95;105632;1254;73722;-27
2023/11/16 07:02:22;;;;;;;2.00;1.30;;;;;;;3.54;79.18;98290.91;105677;1254;74218;-27
2023/11/16 07:04:49;;;;;;;4.80;1.80;;;;;;;3.90;78.68;98289.14;105679;1254;73833;-27
2023/11/16 07:07:17;;;;;;;2.40;2.00;;;;;;;3.82;79.47;98297.52;105547;1253;61164;-27
2023/11/16 07:09:46;;;;;;;3.20;2.20;;;;;;;3.86;79.46;98302.97;105540;1257;61177;-27
2023/11/16 07:12:14;;;;;;;3.40;2.90;;;;;;;3.77;79.49;98299.40;105493;1261;73683;-27
2023/11/16 07:14:42;;;;;;;2.60;2.30;;;;;;;3.44;80.04;98286.58;105640;1254;74113;-27
2023/11/16 07:17:19;;;;;;;2.00;1.80;;;;;;;3.56;80.08;98298.23;105547;1253;72624;-27
2023/11/16 07:19:48;;;;;;;2.80;2.50;;;;;;;3.97;77.84;98295.05;105523;1259;61077;-27
2023/11/16 07:22:15;;;;;;;5.90;2.90;;;;;;;4.10;76.70;98300.52;105502;1260;62213;-27
2023/11/16 07:24:43;;;;;;;4.40;3.20;;;;;;;3.83;77.95;98305.21;105633;1254;74380;-27
2023/11/16 07:27:11;;;;;;;3.20;2.90;;;;;;;3.83;79.22;98321.02;105668;1254;74703;-27
2023/11/16 07:29:42;;;;;;;4.30;3.10;;;;;;;3.56;78.99;98306.92;105546;1254;72380;-27
2023/11/16 07:32:10;;;;;;;2.50;2.10;;;;;;;3.57;79.23;98310.81;105634;1254;60994;-27
2023/11/16 07:34:39;;;;;;;4.50;3.50;;;;;;;3.79;78.48;98316.30;105626;1260;61263;-27
2023/11/16 07:37:06;;;;;;;3.20;2.90;;;;;;;3.59;77.98;98310.86;105435;1254;73600;-27
2023/11/16 07:39:34;;;;;;;4.00;2.60;;;;;;;3.47;78.47;98317.98;105567;1260;74306;-27
2023/11/16 07:42:01;;;;;;;2.40;2.00;;;;;;;3.50;78.26;98324.98;105652;1254;72542;-27
2023/11/16 07:44:28;;;;;;;4.40;2.00;;;;;;;3.56;77.82;98326.84;105618;1255;61203;-27
2023/11/16 07:46:56;;;;;;;3.20;2.50;;;;;;;3.80;77.08;98341.79;105594;1258;61183;-27
2023/11/16 07:49:23;;;;;;;3.70;2.90;;;;;;;4.07;76.39;98349.17;105617;1258;72244;-27
2023/11/16 07:51:51;;;;;;;3.90;2.90;;;;;;;3.79;76.26;98330.73;105660;1258;74557;-27
2023/11/16 07:54:19;;;;;;;3.30;2.70;;;;;;;3.55;77.47;98336.17;105616;1254;72475;-27
2023/11/16 07:56:52;;;;;;;5.80;2.30;;;;;;;3.44;77.65;98348.39;105641;1257;61201;-27
2023/11/16 07:59:30;;;;;;;3.50;2.00;;;;;;;3.61;78.02;98353.30;105639;1258;61118;-27
2023/11/16 08:02:00;;;;;;;3.30;2.80;;;;;;;3.90;76.21;98362.98;105658;1254;73850;-27
2023/11/16 08:04:27;;;;;;;3.90;2.70;;;;;;;3.77;75.89;98350.96;105422;1254;74508;-27
2023/11/16 08:06:56;;;;;;;3.80;3.40;;;;;;;3.55;76.97;98350.48;105567;1253;73655;-27
2023/11/16 08:09:24;;;;;;;3.30;2.70;;;;;;;3.45;77.01;98358.77;105468;1259;61253;-27
2023/11/16 08:11:54;;;;;;;2.60;2.10;;;;;;;3.46;77.53;98372.93;105553;1254;61296;-27
2023/11/16 08:14:24;;;;;;;3.00;2.50;;;;;;;3.52;77.18;98380.33;105671;1254;73816;-27
2023/11/16 08:16:56;;;;;;;3.10;2.80;;;;;;;3.79;75.96;98388.91;105603;1254;74773;-27
2023/11/16 08:19:27;;;;;;;3.70;2.50;;;;;;;3.72;76.09;98407.74;105657;1258;72716;-27
2023/11/16 08:21:55;;;;;;;3.50;2.60;;;;;;;3.54;76.55;98408.86;105698;1257;61122;-27
2023/11/16 08:24:23;;;;;;;3.20;2.70;;;;;;;3.41;77.30;98409.80;105628;1256;61239;-27
2023/11/16 08:26:51;;;;;;;2.90;2.00;;;;;;;3.32;78.43;98413.16;105468;1256;73604;-28
2023/11/16 08:29:18;;;;;;;3.40;2.50;;;;;;;3.65;77.08;98418.98;105543;1254;74247;-27
2023/11/16 08:31:52;;;;;;;2.80;2.30;;;;;;;3.60;77.44;98425.29;105753;1256;74059;-27
2023/11/16 08:34:20;;;;;;;3.30;2.60;;;;;;;3.56;78.36;98418.36;105675;1255;61170;-27
2023/11/16 08:36:47;;;;;;;3.80;2.70;;;;;;;3.30;78.73;98419.07;105650;1254;61290;-27
2023/11/16 08:39:17;;;;;;;2.90;2.40;;;;;;;3.13;80.20;98421.83;105664;1255;75096;-27
2023/11/16 08:41:45;;;;;;;3.30;2.60;;;;;;;3.60;79.17;98429.77;105663;1254;73903;-27
2023/11/16 08:44:12;;;;;;;3.60;3.20;;;;;;;3.66;78.31;98419.81;105644;1257;72391;-27
2023/11/16 08:46:43;;;;;;;4.80;3.50;;;;;;;3.65;78.20;98414.02;105705;1257;61079;-27
2023/11/16 08:49:11;;;;;;;4.70;3.70;;;;;;;3.39;79.70;98436.20;105621;1254;61140;-27
2023/11/16 08:51:38;;;;;;;3.60;3.20;;;;;;;3.24;80.50;98433.36;105646;1254;76394;-27
2023/11/16 08:54:08;;;;;;;4.10;3.20;;;;;;;3.45;80.32;98437.55;105662;1255;74025;-27
2023/11/16 08:56:36;;;;;;;4.40;3.40;;;;;;;3.64;79.14;98430.20;105700;1259;71577;-27
2023/11/16 08:59:09;;;;;;;4.00;3.30;;;;;;;3.64;79.24;98445.48;105676;1257;61179;-27
2023/11/16 09:01:39;;;;;;;5.00;4.40;;;;;;;3.26;80.32;98431.14;105678;1253;61052;-28
2023/11/16 09:04:12;;;;;;;5.20;3.90;;;;;;;3.05;80.82;98437.06;105490;1253;74326;-27
2023/11/16 09:06:43;;;;;;;5.70;3.70;;;;;;;3.26;81.19;98454.64;105654;1259;74416;-28
2023/11/16 09:09:33;;;;;;;4.30;3.80;;;;;;;3.48;78.85;98437.71;105483;1257;73944;-29
2023/11/16 09:11:58;;;;;;;5.60;4.00;;;;;;;3.42;78.13;98444.14;105558;1254;61634;-28
2023/11/16 09:14:26;;;;;;;6.60;5.10;;;;;;;3.29;78.58;98440.91;105489;1259;61141;-27
2023/11/16 09:17:02;;;;;;;6.40;4.70;;;;;;;3.15;78.73;98439.35;105650;1254;73832;-27
2023/11/16 09:19:40;;;;;;;6.00;3.30;;;;;;;3.02;79.51;98441.33;105572;1253;74201;-27
2023/11/16 09:22:09;;;;;;;5.60;4.70;;;;;;;3.18;78.48;98427.04;105708;1258;71213;-26
2023/11/16 09:24:37;;;;;;;5.00;4.40;;;;;;;3.18;78.18;98439.85;105727;1254;61818;-27
2023/11/16 09:27:04;;;;;;;5.60;4.30;;;;;;;3.22;78.00;98443.27;105649;1255;61138;-26
2023/11/16 09:29:36;;;;;;;6.60;5.10;;;;;;;3.09;78.07;98439.92;105676;1253;73826;-26
2023/11/16 09:32:05;;;;;;;5.40;3.00;;;;;;;3.03;78.07;98444.52;105649;1255;73653;-26
2023/11/16 09:34:32;;;;;;;3.90;3.30;;;;;;;3.14;77.26;98440.77;105679;1254;72747;-27
2023/11/16 09:37:00;;;;;;;6.00;3.80;;;;;;;3.31;76.07;98456.23;105716;1253;61863;-27
2023/11/16 09:39:28;;;;;;;5.00;3.60;;;;;;;3.45;75.38;98454.90;105717;1253;61081;-26
2023/11/16 09:41:55;;;;;;;4.50;4.00;;;;;;;3.37;75.61;98468.58;105685;1259;72827;-27
2023/11/16 09:44:24;;;;;;;6.50;4.30;;;;;;;3.35;75.94;98466.45;105583;1254;74911;-26
2023/11/16 09:46:52;;;;;;;6.20;3.90;;;;;;;3.12;76.45;98470.42;105659;1254;71182;-27
2023/11/16 09:49:24;;;;;;;4.90;4.20;;;;;;;3.36;75.94;98469.67;105368;1256;61163;-27
2023/11/16 09:51:51;;;;;;;5.80;3.70;;;;;;;3.43;74.71;98453.31;105468;1259;61108;-27
2023/11/16 09:54:22;;;;;;;6.60;4.90;;;;;;;3.36;74.44;98461.76;105713;1258;73613;-27
2023/11/16 09:56:49;;;;;;;5.10;4.40;;;;;;;3.28;74.88;98469.30;105711;1254;74401;-27
2023/11/16 09:59:27;;;;;;;5.60;4.10;;;;;;;3.02;76.19;98474.59;105679;1259;72491;-27
2023/11/16 10:02:08;;;;;;;5.50;4.00;;;;;;;3.08;76.35;98478.01;105646;1253;61058;-27
2023/11/16 10:04:41;;;;;;;4.60;3.70;;;;;;;3.21;76.01;98480.66;105626;1258;61520;-27
2023/11/16 10:07:16;;;;;;;4.90;4.20;;;;;;;3.32;75.02;98479.15;105726;1254;73863;-27
2023/11/16 10:09:44;;;;;;;6.60;4.80;;;;;;;3.25;74.38;98481.13;105662;1254;74815;-27
2023/11/16 10:12:12;;;;;;;5.40;4.40;;;;;;;3.37;74.91;98486.25;105667;1257;72848;-27
2023/11/16 10:14:52;;;;;;;5.70;3.80;;;;;;;3.38;75.20;98495.33;105716;1258;61151;-27
2023/11/16 10:17:21;;;;;;;5.10;3.60;;;;;;;3.22;76.02;98497.08;105593;1255;61780;-27
2023/11/16 10:19:50;;;;;;;4.80;3.30;;;;;;;3.44;75.99;98499.04;105729;1254;75246;-27
2023/11/16 10:22:17;;;;;;;5.70;3.70;;;;;;;3.78;73.87;98497.15;105660;1254;73541;-27
2023/11/16 10:24:47;;;;;;;5.30;4.30;;;;;;;3.74;72.94;98491.71;105677;1258;72554;-27
2023/11/16 10:27:14;;;;;;;7.30;4.50;;;;;;;3.53;73.60;98494.75;105666;1254;61083;-27
2023/11/16 10:29:41;;;;;;;6.10;4.80;;;;;;;3.52;74.28;98501.31;105647;1257;61948;-27
2023/11/16 10:32:09;;;;;;;5.30;3.70;;;;;;;3.32;74.09;98491.87;105626;1254;73633;-28
2023/11/16 10:34:37;;;;;;;4.50;3.30;;;;;;;3.23;75.12;98510.61;105638;1254;74343;-27
2023/11/16 10:37:04;;;;;;;6.20;4.50;;;;;;;3.30;74.49;98505.41;105693;1257;71634;-27
2023/11/16 10:39:32;;;;;;;5.90;4.00;;;;;;;3.35;73.41;98488.94;105660;1254;61080;-27
2023/11/16 10:42:01;;;;;;;5.50;4.20;;;;;;;3.41;72.81;98503.33;105590;1259;61164;-27
2023/11/16 10:44:29;;;;;;;5.30;3.40;;;;;;;3.27;73.46;98509.86;105644;1254;75256;-27
2023/11/16 10:46:57;;;;;;;6.30;4.10;;;;;;;3.26;74.25;98519.16;105635;1254;74578;-27
2023/11/16 10:49:25;;;;;;;5.90;4.10;;;;;;;3.14;74.85;98521.73;105683;1254;73237;-27
2023/11/16 10:51:56;;;;;;;7.70;3.80;;;;;;;3.04;75.45;98523.35;105657;1253;61053;-27
2023/11/16 10:54:23;;;;;;;4.80;3.60;;;;;;;3.19;74.94;98517.70;105682;1260;61189;-27
2023/11/16 10:56:53;;;;;;;6.00;4.00;;;;;;;3.32;73.94;98523.63;105681;1253;74282;-27
2023/11/16 10:59:21;;;;;;;4.50;3.70;;;;;;;3.49;73.84;98530.48;105664;1255;74220;-27
2023/11/16 11:01:48;;;;;;;5.40;4.10;;;;;;;3.50;74.47;98528.72;105702;1257;71574;-27
2023/11/16 11:04:15;;;;;;;5.00;3.90;;;;;;;3.34;74.79;98525.58;105560;1255;61058;-27
2023/11/16 11:06:43;;;;;;;5.60;3.50;;;;;;;3.20;74.99;98521.60;105605;1254;61171;-27
2023/11/16 11:09:15;;;;;;;5.30;3.40;;;;;;;3.18;74.33;98518.24;105714;1253;73807;-27
2023/11/16 11:11:44;;;;;;;5.50;4.10;;;;;;;3.20;73.75;98518.17;105623;1253;74378;-27
2023/11/16 11:14:13;;;;;;;8.20;3.50;;;;;;;3.21;74.22;98528.91;105662;1254;72916;-28
2023/11/16 11:16:40;;;;;;;5.00;4.00;;;;;;;3.19;73.23;98522.31;105666;1254;61067;-27
2023/11/16 11:19:09;;;;;;;5.20;4.00;;;;;;;3.06;74.11;98529.10;105605;1254;61061;-29
2023/11/16 11:21:49;;;;;;;4.80;3.60;;;;;;;3.00;74.08;98534.25;105399;1254;73712;-28
2023/11/16 11:24:16;;;;;;;4.30;3.20;;;;;;;3.03;74.12;98537.29;105471;1256;72681;-27
2023/11/16 11:26:48;;;;;;;5.20;3.70;;;;;;;3.33;73.04;98540.56;105529;1257;72862;-28
2023/11/16 11:29:16;;;;;;;7.30;3.90;;;;;;;3.38;72.50;98551.08;105223;1253;61815;-28
2023/11/16 11:31:52;;;;;;;5.00;3.60;;;;;;;3.24;72.79;98546.25;105240;1254;61819;-28
2023/11/16 11:34:27;;;;;;;4.70;3.50;;;;;;;3.14;72.76;98548.17;105214;1253;72636;-28
2023/11/16 11:36:54;;;;;;;4.60;3.00;;;;;;;3.10;73.52;98552.20;105264;1261;74691;-27
2023/11/16 11:39:26;;;;;;;4.10;2.80;;;;;;;2.96;73.44;98554.88;105452;1254;71772;-28
2023/11/16 11:41:59;;;;;;;3.30;2.70;;;;;;;3.03;72.77;98548.80;105422;1258;61052;-26